sensor_id;sensor_type;location;lat;lon;timestamp;temperature;humidity
52397;DHT22;38322;53.108;6.308;2023-11-19T06:01:35;11.10;99.90
52397;DHT22;38322;53.108;6.308;2023-11-19T06:04:01;11.10;99.90
52397;DHT22;38322;53.108;6.308;2023-11-19T06:06:28;11.10;99.90
52397;DHT22;38322;53.108;6.308;2023-11-19T06:08:54;11.10;99.90
52397;DHT22;38322;53.108;6.308;2023-11-19T06:11:20;11.10;99.90
52397;DHT22;38322;53.108;6.308;2023-11-19T06:13:46;11.10;99.90
52397;DHT22;38322;53.108;6.308;2023-11-19T06:16:13;11.00;99.90
52397;DHT22;38322;53.108;6.308;2023-11-19T06:18:39;11.10;99.90
52397;DHT22;38322;53.108;6.308;2023-11-19T06:21:07;11.10;99.90
52397;DHT22;38322;53.108;6.308;2023-11-19T06:23:32;11.10;99.90
52397;DHT22;38322;53.108;6.308;2023-11-19T06:25:58;11.10;99.90
52397;DHT22;38322;53.108;6.308;2023-11-19T06:28:25;11.10;99.90
52397;DHT22;38322;53.108;6.308;2023-11-19T06:30:50;11.00;99.90
52397;DHT22;38322;53.108;6.308;2023-11-19T06:33:16;11.10;99.90
52397;DHT22;38322;53.108;6.308;2023-11-19T06:35:42;11.10;99.90
52397;DHT22;38322;53.108;6.308;2023-11-19T06:38:08;11.10;99.90
52397;DHT22;38322;53.108;6.308;2023-11-19T06:40:34;11.10;99.90
52397;DHT22;38322;53.108;6.308;2023-11-19T06:43:01;11.00;99.90
52397;DHT22;38322;53.108;6.308;2023-11-19T06:45:29;11.00;99.90
52397;DHT22;38322;53.108;6.308;2023-11-19T06:47:55;11.00;99.90
52397;DHT22;38322;53.108;6.308;2023-11-19T06:50:21;11.00;99.90
52397;DHT22;38322;53.108;6.308;2023-11-19T06:52:47;11.10;99.90
52397;DHT22;38322;53.108;6.308;2023-11-19T06:55:13;11.00;99.90
52397;DHT22;38322;53.108;6.308;2023-11-19T06:57:39;11.00;99.90
52397;DHT22;38322;53.108;6.308;2023-11-19T07:00:06;11.00;99.90
52397;DHT22;38322;53.108;6.308;2023-11-19T07:02:32;11.00;99.90
52397;DHT22;38322;53.108;6.308;2023-11-19T07:04:57;11.00;99.90
52397;DHT22;38322;53.108;6.308;2023-11-19T07:07:23;10.90;99.90
52397;DHT22;38322;53.108;6.308;2023-11-19T07:09:49;10.90;99.90
52397;DHT22;38322;53.108;6.308;2023-11-19T07:12:16;10.90;99.90
52397;DHT22;38322;53.108;6.308;2023-11-19T07:14:41;10.90;99.90
52397;DHT22;38322;53.108;6.308;2023-11-19T07:17:08;10.90;99.90
52397;DHT22;38322;53.108;6.308;2023-11-19T07:19:34;10.90;99.90
52397;DHT22;38322;53.108;6.308;2023-11-19T07:22:02;10.90;99.90
52397;DHT22;38322;53.108;6.308;2023-11-19T07:24:28;10.90;99.90
52397;DHT22;38322;53.108;6.308;2023-11-19T07:26:54;10.90;99.90
52397;DHT22;38322;53.108;6.308;2023-11-19T07:29:20;10.90;99.90
52397;DHT22;38322;53.108;6.308;2023-11-19T07:31:48;10.90;99.90
52397;DHT22;38322;53.108;6.308;2023-11-19T07:34:15;10.90;99.90
52397;DHT22;38322;53.108;6.308;2023-11-19T07:36:40;10.90;99.90
52397;DHT22;38322;53.108;6.308;2023-11-19T07:39:06;10.80;99.90
52397;DHT22;38322;53.108;6.308;2023-11-19T07:41:34;10.80;99.90
52397;DHT22;38322;53.108;6.308;2023-11-19T07:44:00;10.70;99.90
52397;DHT22;38322;53.108;6.308;2023-11-19T07:46:26;10.70;99.90
52397;DHT22;38322;53.108;6.308;2023-11-19T07:48:52;10.70;99.90
52397;DHT22;38322;53.108;6.308;2023-11-19T07:51:18;10.80;99.90
52397;DHT22;38322;53.108;6.308;2023-11-19T07:53:44;10.80;99.90
52397;DHT22;38322;53.108;6.308;2023-11-19T07:56:10;10.80;99.90
52397;DHT22;38322;53.108;6.308;2023-11-19T07:58:36;10.90;99.90
52397;DHT22;38322;53.108;6.308;2023-11-19T08:01:02;10.90;99.90
52397;DHT22;38322;53.108;6.308;2023-11-19T08:03:28;10.90;99.90
52397;DHT22;38322;53.108;6.308;2023-11-19T08:05:56;11.00;99.90
52397;DHT22;38322;53.108;6.308;2023-11-19T08:08:23;11.00;99.90
52397;DHT22;38322;53.108;6.308;2023-11-19T08:10:48;11.00;99.90
52397;DHT22;38322;53.108;6.308;2023-11-19T08:13:18;11.10;99.90
52397;DHT22;38322;53.108;6.308;2023-11-19T08:15:44;11.10;99.90
52397;DHT22;38322;53.108;6.308;2023-11-19T08:18:10;11.10;99.90
52397;DHT22;38322;53.108;6.308;2023-11-19T08:20:36;11.10;99.90
52397;DHT22;38322;53.108;6.308;2023-11-19T08:23:03;11.10;99.90
52397;DHT22;38322;53.108;6.308;2023-11-19T08:25:30;11.10;99.90
52397;DHT22;38322;53.108;6.308;2023-11-19T08:27:56;11.10;99.90
52397;DHT22;38322;53.108;6.308;2023-11-19T08:30:22;11.00;99.90
52397;DHT22;38322;53.108;6.308;2023-11-19T08:32:48;11.00;99.90
52397;DHT22;38322;53.108;6.308;2023-11-19T08:35:14;11.00;99.90
52397;DHT22;38322;53.108;6.308;2023-11-19T08:37:41;10.90;99.90
52397;DHT22;38322;53.108;6.308;2023-11-19T08:40:08;10.90;99.90
52397;DHT22;38322;53.108;6.308;2023-11-19T08:42:34;10.80;99.90
52397;DHT22;38322;53.108;6.308;2023-11-19T08:44:59;10.90;99.90
52397;DHT22;38322;53.108;6.308;2023-11-19T08:47:25;10.90;99.90
52397;DHT22;38322;53.108;6.308;2023-11-19T08:49:51;10.80;99.90
52397;DHT22;38322;53.108;6.308;2023-11-19T08:52:19;10.90;99.90
52397;DHT22;38322;53.108;6.308;2023-11-19T08:54:44;10.90;99.90
52397;DHT22;38322;53.108;6.308;2023-11-19T08:57:10;10.90;99.90
52397;DHT22;38322;53.108;6.308;2023-11-19T08:59:36;10.90;99.90
52397;DHT22;38322;53.108;6.308;2023-11-19T09:02:05;10.90;99.90
52397;DHT22;38322;53.108;6.308;2023-11-19T09:04:31;10.90;99.90
52397;DHT22;38322;53.108;6.308;2023-11-19T09:06:58;11.00;99.90
52397;DHT22;38322;53.108;6.308;2023-11-19T09:09:24;11.20;99.90
52397;DHT22;38322;53.108;6.308;2023-11-19T09:11:50;11.30;99.90
52397;DHT22;38322;53.108;6.308;2023-11-19T09:14:16;11.40;99.90
52397;DHT22;38322;53.108;6.308;2023-11-19T09:16:43;11.50;99.90
52397;DHT22;38322;53.108;6.308;2023-11-19T09:19:09;11.50;99.90
52397;DHT22;38322;53.108;6.308;2023-11-19T09:21:35;11.50;99.90
52397;DHT22;38322;53.108;6.308;2023-11-19T09:24:05;11.60;99.90
52397;DHT22;38322;53.108;6.308;2023-11-19T09:26:31;11.60;99.90
52397;DHT22;38322;53.108;6.308;2023-11-19T09:28:56;11.70;99.90
52397;DHT22;38322;53.108;6.308;2023-11-19T09:31:22;11.80;99.90
52397;DHT22;38322;53.108;6.308;2023-11-19T09:33:48;11.80;99.90
52397;DHT22;38322;53.108;6.308;2023-11-19T09:36:14;11.80;99.90
52397;DHT22;38322;53.108;6.308;2023-11-19T09:38:40;11.70;99.90
52397;DHT22;38322;53.108;6.308;2023-11-19T09:41:06;11.70;99.90
52397;DHT22;38322;53.108;6.308;2023-11-19T09:43:35;11.70;99.90
52397;DHT22;38322;53.108;6.308;2023-11-19T09:46:05;11.70;99.90
52397;DHT22;38322;53.108;6.308;2023-11-19T09:48:34;11.70;99.90
52397;DHT22;38322;53.108;6.308;2023-11-19T09:51:00;11.70;99.90
52397;DHT22;38322;53.108;6.308;2023-11-19T09:53:27;11.70;99.90
52397;DHT22;38322;53.108;6.308;2023-11-19T09:55:53;11.70;99.90
52397;DHT22;38322;53.108;6.308;2023-11-19T09:58:19;11.70;99.90
52397;DHT22;38322;53.108;6.308;2023-11-19T10:00:45;11.80;99.90
52397;DHT22;38322;53.108;6.308;2023-11-19T10:03:11;11.80;99.90
52397;DHT22;38322;53.108;6.308;2023-11-19T10:05:38;11.70;99.90
52397;DHT22;38322;53.108;6.308;2023-11-19T10:08:06;11.80;99.90
52397;DHT22;38322;53.108;6.308;2023-11-19T10:10:32;11.80;99.90
52397;DHT22;38322;53.108;6.308;2023-11-19T10:12:58;11.70;99.90
52397;DHT22;38322;53.108;6.308;2023-11-19T10:15:26;11.70;99.90
52397;DHT22;38322;53.108;6.308;2023-11-19T10:17:55;11.60;99.90
52397;DHT22;38322;53.108;6.308;2023-11-19T10:20:22;11.70;99.90
52397;DHT22;38322;53.108;6.308;2023-11-19T10:22:48;11.70;99.90
52397;DHT22;38322;53.108;6.308;2023-11-19T10:25:24;11.60;99.90
52397;DHT22;38322;53.108;6.308;2023-11-19T10:27:51;11.60;99.90
52397;DHT22;38322;53.108;6.308;2023-11-19T10:30:22;11.60;99.90
52397;DHT22;38322;53.108;6.308;2023-11-19T10:33:06;11.60;99.90
52397;DHT22;38322;53.108;6.308;2023-11-19T10:35:34;11.50;99.90
52397;DHT22;38322;53.108;6.308;2023-11-19T10:38:03;11.50;99.90
52397;DHT22;38322;53.108;6.308;2023-11-19T10:40:38;11.60;99.90
52397;DHT22;38322;53.108;6.308;2023-11-19T10:43:06;11.60;99.90
52397;DHT22;38322;53.108;6.308;2023-11-19T10:45:34;11.60;99.90
52397;DHT22;38322;53.108;6.308;2023-11-19T10:48:00;11.70;99.90
52397;DHT22;38322;53.108;6.308;2023-11-19T10:50:27;11.70;99.90
52397;DHT22;38322;53.108;6.308;2023-11-19T10:52:56;11.80;99.90
52397;DHT22;38322;53.108;6.308;2023-11-19T10:55:30;11.80;99.90
52397;DHT22;38322;53.108;6.308;2023-11-19T10:58:00;11.80;99.90
52397;DHT22;38322;53.108;6.308;2023-11-19T11:00:29;11.90;99.90
52397;DHT22;38322;53.108;6.308;2023-11-19T11:03:01;11.90;99.90
52397;DHT22;38322;53.108;6.308;2023-11-19T11:05:29;11.90;99.90
52397;DHT22;38322;53.108;6.308;2023-11-19T11:07:58;11.90;99.90
52397;DHT22;38322;53.108;6.308;2023-11-19T11:10:26;11.90;99.90
52397;DHT22;38322;53.108;6.308;2023-11-19T11:12:52;12.00;99.90
52397;DHT22;38322;53.108;6.308;2023-11-19T11:15:26;12.00;99.90
52397;DHT22;38322;53.108;6.308;2023-11-19T11:17:57;12.10;99.90
52397;DHT22;38322;53.108;6.308;2023-11-19T11:20:23;12.00;99.90
52397;DHT22;38322;53.108;6.308;2023-11-19T11:31:06;12.00;99.90
52397;DHT22;38322;53.108;6.308;2023-11-19T11:33:48;12.10;99.90
52397;DHT22;38322;53.108;6.308;2023-11-19T11:36:23;12.10;99.90
52397;DHT22;38322;53.108;6.308;2023-11-19T11:38:49;12.10;99.90
52397;DHT22;38322;53.108;6.308;2023-11-19T11:43:52;12.00;99.90
52397;DHT22;38322;53.108;6.308;2023-11-19T11:49:07;11.80;99.90
52397;DHT22;38322;53.108;6.308;2023-11-19T11:54:26;11.80;99.90
52397;DHT22;38322;53.108;6.308;2023-11-19T11:57:11;11.70;99.90
52397;DHT22;38322;53.108;6.308;2023-11-19T12:02:08;11.80;99.90
52397;DHT22;38322;53.108;6.308;2023-11-19T12:04:35;11.80;99.90
52397;DHT22;38322;53.108;6.308;2023-11-19T12:07:06;11.80;99.90
52397;DHT22;38322;53.108;6.308;2023-11-19T12:09:33;11.80;99.90
52397;DHT22;38322;53.108;6.308;2023-11-19T12:20:00;11.80;99.90
52397;DHT22;38322;53.108;6.308;2023-11-19T12:22:27;11.80;99.90
52397;DHT22;38322;53.108;6.308;2023-11-19T12:24:54;11.90;99.90
52397;DHT22;38322;53.108;6.308;2023-11-19T12:27:20;11.90;99.90
52397;DHT22;38322;53.108;6.308;2023-11-19T12:29:48;12.00;99.90
52397;DHT22;38322;53.108;6.308;2023-11-19T12:32:14;12.00;99.90
52397;DHT22;38322;53.108;6.308;2023-11-19T12:34:40;12.00;99.90
52397;DHT22;38322;53.108;6.308;2023-11-19T12:37:06;12.00;99.90
52397;DHT22;38322;53.108;6.308;2023-11-19T12:39:32;12.00;99.90
52397;DHT22;38322;53.108;6.308;2023-11-19T12:41:58;12.00;99.90
52397;DHT22;38322;53.108;6.308;2023-11-19T12:44:25;12.10;99.90
52397;DHT22;38322;53.108;6.308;2023-11-19T12:47:00;12.20;99.90
52397;DHT22;38322;53.108;6.308;2023-11-19T12:49:27;12.30;99.90
52397;DHT22;38322;53.108;6.308;2023-11-19T12:51:53;12.30;99.90
52397;DHT22;38322;53.108;6.308;2023-11-19T12:54:18;12.40;99.90
52397;DHT22;38322;53.108;6.308;2023-11-19T12:56:54;12.40;99.90
52397;DHT22;38322;53.108;6.308;2023-11-19T12:59:19;12.50;99.90
52397;DHT22;38322;53.108;6.308;2023-11-19T13:01:55;12.40;99.90
52397;DHT22;38322;53.108;6.308;2023-11-19T13:04:22;12.30;99.90
52397;DHT22;38322;53.108;6.308;2023-11-19T13:06:50;12.30;99.90
52397;DHT22;38322;53.108;6.308;2023-11-19T13:09:23;12.30;99.90
52397;DHT22;38322;53.108;6.308;2023-11-19T13:11:50;12.20;99.90
52397;DHT22;38322;53.108;6.308;2023-11-19T13:14:16;12.20;99.90
52397;DHT22;38322;53.108;6.308;2023-11-19T13:16:42;12.20;99.90
52397;DHT22;38322;53.108;6.308;2023-11-19T13:19:09;12.20;99.90
52397;DHT22;38322;53.108;6.308;2023-11-19T13:21:35;12.20;99.90
52397;DHT22;38322;53.108;6.308;2023-11-19T13:24:02;12.10;99.90
52397;DHT22;38322;53.108;6.308;2023-11-19T13:26:28;12.10;99.90
52397;DHT22;38322;53.108;6.308;2023-11-19T13:28:54;12.00;99.90
52397;DHT22;38322;53.108;6.308;2023-11-19T13:31:20;12.10;99.90
52397;DHT22;38322;53.108;6.308;2023-11-19T13:33:45;12.10;99.90
52397;DHT22;38322;53.108;6.308;2023-11-19T13:36:11;12.00;99.90
52397;DHT22;38322;53.108;6.308;2023-11-19T13:38:37;12.00;99.90
52397;DHT22;38322;53.108;6.308;2023-11-19T13:41:03;12.00;99.90
52397;DHT22;38322;53.108;6.308;2023-11-19T13:43:31;12.00;99.90
52397;DHT22;38322;53.108;6.308;2023-11-19T13:45:57;12.00;99.90
52397;DHT22;38322;53.108;6.308;2023-11-19T13:48:24;12.00;99.90
52397;DHT22;38322;53.108;6.308;2023-11-19T13:50:52;11.90;99.90
52397;DHT22;38322;53.108;6.308;2023-11-19T13:53:17;11.90;99.90
52397;DHT22;38322;53.108;6.308;2023-11-19T13:55:43;11.90;99.90
52397;DHT22;38322;53.108;6.308;2023-11-19T13:58:10;11.90;99.90
52397;DHT22;38322;53.108;6.308;2023-11-19T14:00:36;11.90;99.90
52397;DHT22;38322;53.108;6.308;2023-11-19T14:03:02;11.90;99.90
52397;DHT22;38322;53.108;6.308;2023-11-19T14:05:28;11.90;99.90
52397;DHT22;38322;53.108;6.308;2023-11-19T14:07:54;11.90;99.90
52397;DHT22;38322;53.108;6.308;2023-11-19T14:10:22;11.90;99.90
52397;DHT22;38322;53.108;6.308;2023-11-19T14:12:48;11.90;99.90
52397;DHT22;38322;53.108;6.308;2023-11-19T14:15:16;11.90;99.90
52397;DHT22;38322;53.108;6.308;2023-11-19T14:17:43;11.80;99.90
52397;DHT22;38322;53.108;6.308;2023-11-19T14:20:09;11.80;99.90
52397;DHT22;38322;53.108;6.308;2023-11-19T14:22:40;11.80;99.90
52397;DHT22;38322;53.108;6.308;2023-11-19T14:25:07;11.80;99.90
52397;DHT22;38322;53.108;6.308;2023-11-19T14:27:36;11.80;99.90
52397;DHT22;38322;53.108;6.308;2023-11-19T14:30:05;11.80;99.90
52397;DHT22;38322;53.108;6.308;2023-11-19T14:32:31;11.70;99.90
52397;DHT22;38322;53.108;6.308;2023-11-19T14:34:57;11.70;99.90
52397;DHT22;38322;53.108;6.308;2023-11-19T14:37:23;11.70;99.90
52397;DHT22;38322;53.108;6.308;2023-11-19T14:39:49;11.70;99.90
52397;DHT22;38322;53.108;6.308;2023-11-19T14:42:17;11.70;99.90
52397;DHT22;38322;53.108;6.308;2023-11-19T14:44:42;11.70;99.90
52397;DHT22;38322;53.108;6.308;2023-11-19T14:47:08;11.70;99.90
52397;DHT22;38322;53.108;6.308;2023-11-19T14:49:35;11.70;99.90
52397;DHT22;38322;53.108;6.308;2023-11-19T14:52:03;11.70;99.90
52397;DHT22;38322;53.108;6.308;2023-11-19T14:54:29;11.70;99.90
52397;DHT22;38322;53.108;6.308;2023-11-19T14:56:55;11.70;99.90
52397;DHT22;38322;53.108;6.308;2023-11-19T14:59:21;11.70;99.90
52397;DHT22;38322;53.108;6.308;2023-11-19T15:01:47;11.70;99.90
52397;DHT22;38322;53.108;6.308;2023-11-19T15:04:13;11.70;99.90
52397;DHT22;38322;53.108;6.308;2023-11-19T15:06:39;11.70;99.90
52397;DHT22;38322;53.108;6.308;2023-11-19T15:09:04;11.70;99.90
52397;DHT22;38322;53.108;6.308;2023-11-19T15:11:33;11.70;99.90
52397;DHT22;38322;53.108;6.308;2023-11-19T15:13:59;11.60;99.90
52397;DHT22;38322;53.108;6.308;2023-11-19T15:16:25;11.60;99.90
52397;DHT22;38322;53.108;6.308;2023-11-19T15:18:58;11.60;99.90
52397;DHT22;38322;53.108;6.308;2023-11-19T15:21:26;11.50;99.90
52397;DHT22;38322;53.108;6.308;2023-11-19T15:23:53;11.50;99.90
52397;DHT22;38322;53.108;6.308;2023-11-19T15:26:18;11.50;99.90
52397;DHT22;38322;53.108;6.308;2023-11-19T15:28:45;11.50;99.90
52397;DHT22;38322;53.108;6.308;2023-11-19T15:31:10;11.50;99.90
52397;DHT22;38322;53.108;6.308;2023-11-19T15:33:36;11.40;99.90
52397;DHT22;38322;53.108;6.308;2023-11-19T15:36:02;11.40;99.90
52397;DHT22;38322;53.108;6.308;2023-11-19T15:38:34;11.30;99.90
52397;DHT22;38322;53.108;6.308;2023-11-19T15:40:59;11.30;99.90
52397;DHT22;38322;53.108;6.308;2023-11-19T15:43:25;11.20;99.90
52397;DHT22;38322;53.108;6.308;2023-11-19T15:45:51;11.20;99.90
52397;DHT22;38322;53.108;6.308;2023-11-19T15:48:18;11.20;99.90
52397;DHT22;38322;53.108;6.308;2023-11-19T15:50:44;11.20;99.90
52397;DHT22;38322;53.108;6.308;2023-11-19T15:53:10;11.10;99.90
52397;DHT22;38322;53.108;6.308;2023-11-19T15:55:36;11.10;99.90
52397;DHT22;38322;53.108;6.308;2023-11-19T15:58:02;11.10;99.90
52397;DHT22;38322;53.108;6.308;2023-11-19T16:00:29;11.00;99.90
52397;DHT22;38322;53.108;6.308;2023-11-19T16:02:54;11.00;99.90
52397;DHT22;38322;53.108;6.308;2023-11-19T16:05:22;11.00;99.90
52397;DHT22;38322;53.108;6.308;2023-11-19T16:07:49;11.00;99.90
52397;DHT22;38322;53.108;6.308;2023-11-19T16:10:16;11.00;99.90
52397;DHT22;38322;53.108;6.308;2023-11-19T16:12:46;11.00;99.90
52397;DHT22;38322;53.108;6.308;2023-11-19T16:15:13;11.00;99.90
52397;DHT22;38322;53.108;6.308;2023-11-19T16:17:41;11.00;99.90
52397;DHT22;38322;53.108;6.308;2023-11-19T16:20:08;11.00;99.90
52397;DHT22;38322;53.108;6.308;2023-11-19T16:22:37;10.90;99.90
52397;DHT22;38322;53.108;6.308;2023-11-19T16:25:04;11.00;99.90
52397;DHT22;38322;53.108;6.308;2023-11-19T16:27:29;11.00;99.90
52397;DHT22;38322;53.108;6.308;2023-11-19T16:29:55;10.90;99.90
52397;DHT22;38322;53.108;6.308;2023-11-19T16:32:21;10.90;99.90
52397;DHT22;38322;53.108;6.308;2023-11-19T16:34:47;10.90;99.90
52397;DHT22;38322;53.108;6.308;2023-11-19T16:37:17;10.90;99.90
52397;DHT22;38322;53.108;6.308;2023-11-19T16:39:43;10.90;99.90
52397;DHT22;38322;53.108;6.308;2023-11-19T16:42:10;10.90;99.90
52397;DHT22;38322;53.108;6.308;2023-11-19T16:44:36;10.90;99.90
52397;DHT22;38322;53.108;6.308;2023-11-19T16:47:01;10.90;99.90
52397;DHT22;38322;53.108;6.308;2023-11-19T16:49:31;10.90;99.90
52397;DHT22;38322;53.108;6.308;2023-11-19T16:51:57;10.90;99.90
52397;DHT22;38322;53.108;6.308;2023-11-19T16:54:23;10.90;99.90
52397;DHT22;38322;53.108;6.308;2023-11-19T16:56:49;10.90;99.90
52397;DHT22;38322;53.108;6.308;2023-11-19T16:59:15;10.90;99.90
52397;DHT22;38322;53.108;6.308;2023-11-19T17:01:41;10.80;99.90
52397;DHT22;38322;53.108;6.308;2023-11-19T17:04:06;10.80;99.90
52397;DHT22;38322;53.108;6.308;2023-11-19T17:06:34;10.80;99.90
52397;DHT22;38322;53.108;6.308;2023-11-19T17:09:00;10.80;99.90
52397;DHT22;38322;53.108;6.308;2023-11-19T17:11:26;10.80;99.90
52397;DHT22;38322;53.108;6.308;2023-11-19T17:13:52;10.80;99.90
52397;DHT22;38322;53.108;6.308;2023-11-19T17:16:19;10.70;99.90
52397;DHT22;38322;53.108;6.308;2023-11-19T17:18:45;10.70;99.90
52397;DHT22;38322;53.108;6.308;2023-11-19T17:21:10;10.70;99.90
52397;DHT22;38322;53.108;6.308;2023-11-19T17:23:36;10.80;99.90
52397;DHT22;38322;53.108;6.308;2023-11-19T17:26:04;10.70;99.90
52397;DHT22;38322;53.108;6.308;2023-11-19T17:28:31;10.70;99.90
52397;DHT22;38322;53.108;6.308;2023-11-19T17:30:59;10.70;99.90
52397;DHT22;38322;53.108;6.308;2023-11-19T17:33:25;10.70;99.90
52397;DHT22;38322;53.108;6.308;2023-11-19T17:35:51;10.70;99.90
52397;DHT22;38322;53.108;6.308;2023-11-19T17:38:17;10.70;99.90
52397;DHT22;38322;53.108;6.308;2023-11-19T17:40:45;10.70;99.90
52397;DHT22;38322;53.108;6.308;2023-11-19T17:43:12;10.70;99.90
52397;DHT22;38322;53.108;6.308;2023-11-19T17:45:41;10.70;99.90
52397;DHT22;38322;53.108;6.308;2023-11-19T17:48:07;10.70;99.90
52397;DHT22;38322;53.108;6.308;2023-11-19T17:50:32;10.70;99.90
52397;DHT22;38322;53.108;6.308;2023-11-19T17:52:59;10.70;99.90
52397;DHT22;38322;53.108;6.308;2023-11-19T17:55:25;10.70;99.90
52397;DHT22;38322;53.108;6.308;2023-11-19T17:57:51;10.70;99.90
52397;DHT22;38322;53.108;6.308;2023-11-19T18:00:17;10.70;99.90
52397;DHT22;38322;53.108;6.308;2023-11-19T18:02:44;10.70;99.90
52397;DHT22;38322;53.108;6.308;2023-11-19T18:05:11;10.70;99.90
52397;DHT22;38322;53.108;6.308;2023-11-19T18:07:38;10.70;99.90
52397;DHT22;38322;53.108;6.308;2023-11-19T18:10:06;10.70;99.90
52397;DHT22;38322;53.108;6.308;2023-11-19T18:12:33;10.70;99.90
52397;DHT22;38322;53.108;6.308;2023-11-19T18:14:59;10.70;99.90
52397;DHT22;38322;53.108;6.308;2023-11-19T18:17:24;10.70;99.90
52397;DHT22;38322;53.108;6.308;2023-11-19T18:19:50;10.70;99.90
52397;DHT22;38322;53.108;6.308;2023-11-19T18:22:16;10.70;99.90
52397;DHT22;38322;53.108;6.308;2023-11-19T18:24:42;10.60;99.90
52397;DHT22;38322;53.108;6.308;2023-11-19T18:27:08;10.60;99.90
52397;DHT22;38322;53.108;6.308;2023-11-19T18:29:34;10.60;99.90
52397;DHT22;38322;53.108;6.308;2023-11-19T18:32:01;10.60;99.90
52397;DHT22;38322;53.108;6.308;2023-11-19T18:34:28;10.60;99.90
52397;DHT22;38322;53.108;6.308;2023-11-19T18:36:53;10.60;99.90
52397;DHT22;38322;53.108;6.308;2023-11-19T18:39:19;10.60;99.90
52397;DHT22;38322;53.108;6.308;2023-11-19T18:41:45;10.60;99.90
52397;DHT22;38322;53.108;6.308;2023-11-19T18:44:11;10.60;99.90
52397;DHT22;38322;53.108;6.308;2023-11-19T18:46:39;10.60;99.90
52397;DHT22;38322;53.108;6.308;2023-11-19T18:49:04;10.70;99.90
52397;DHT22;38322;53.108;6.308;2023-11-19T18:51:31;10.60;99.90
52397;DHT22;38322;53.108;6.308;2023-11-19T18:53:57;10.60;99.90
52397;DHT22;38322;53.108;6.308;2023-11-19T18:56:24;10.60;99.90
52397;DHT22;38322;53.108;6.308;2023-11-19T18:58:50;10.60;99.90
52397;DHT22;38322;53.108;6.308;2023-11-19T19:01:16;10.60;99.90
52397;DHT22;38322;53.108;6.308;2023-11-19T19:03:43;10.70;99.90
52397;DHT22;38322;53.108;6.308;2023-11-19T19:06:09;10.60;99.90
52397;DHT22;38322;53.108;6.308;2023-11-19T19:08:35;10.60;99.90
52397;DHT22;38322;53.108;6.308;2023-11-19T19:11:02;10.60;99.90
52397;DHT22;38322;53.108;6.308;2023-11-19T19:13:28;10.70;99.90
52397;DHT22;38322;53.108;6.308;2023-11-19T19:15:54;10.70;99.90
52397;DHT22;38322;53.108;6.308;2023-11-19T19:18:19;10.60;99.90
52397;DHT22;38322;53.108;6.308;2023-11-19T19:20:45;10.60;99.90
52397;DHT22;38322;53.108;6.308;2023-11-19T19:23:12;10.70;99.90
52397;DHT22;38322;53.108;6.308;2023-11-19T19:25:38;10.60;99.90
52397;DHT22;38322;53.108;6.308;2023-11-19T19:28:04;10.70;99.90
52397;DHT22;38322;53.108;6.308;2023-11-19T19:30:32;10.70;99.90
52397;DHT22;38322;53.108;6.308;2023-11-19T19:32:57;10.70;99.90
52397;DHT22;38322;53.108;6.308;2023-11-19T19:35:24;10.70;99.90
52397;DHT22;38322;53.108;6.308;2023-11-19T19:37:55;10.70;99.90
52397;DHT22;38322;53.108;6.308;2023-11-19T19:40:22;10.70;99.90
52397;DHT22;38322;53.108;6.308;2023-11-19T19:42:49;10.80;99.90
52397;DHT22;38322;53.108;6.308;2023-11-19T19:45:16;10.70;99.90
52397;DHT22;38322;53.108;6.308;2023-11-19T19:47:42;10.80;99.90
52397;DHT22;38322;53.108;6.308;2023-11-19T19:50:08;10.70;99.90
52397;DHT22;38322;53.108;6.308;2023-11-19T19:52:39;10.80;99.90
52397;DHT22;38322;53.108;6.308;2023-11-19T19:55:06;10.80;99.90
52397;DHT22;38322;53.108;6.308;2023-11-19T19:57:33;10.70;99.90
52397;DHT22;38322;53.108;6.308;2023-11-19T20:00:00;10.80;99.90
52397;DHT22;38322;53.108;6.308;2023-11-19T20:02:26;10.80;99.90
52397;DHT22;38322;53.108;6.308;2023-11-19T20:04:55;10.80;99.90
52397;DHT22;38322;53.108;6.308;2023-11-19T20:07:21;10.80;99.90
52397;DHT22;38322;53.108;6.308;2023-11-19T20:09:47;10.80;99.90
52397;DHT22;38322;53.108;6.308;2023-11-19T20:12:13;10.80;99.90
52397;DHT22;38322;53.108;6.308;2023-11-19T20:14:39;10.80;99.90
52397;DHT22;38322;53.108;6.308;2023-11-19T20:17:05;10.80;99.90
52397;DHT22;38322;53.108;6.308;2023-11-19T20:19:33;10.80;99.90
52397;DHT22;38322;53.108;6.308;2023-11-19T20:21:59;10.80;99.90
52397;DHT22;38322;53.108;6.308;2023-11-19T20:24:25;10.80;99.90
52397;DHT22;38322;53.108;6.308;2023-11-19T20:26:51;10.80;99.90
52397;DHT22;38322;53.108;6.308;2023-11-19T20:29:19;10.90;99.90
52397;DHT22;38322;53.108;6.308;2023-11-19T20:31:45;10.90;99.90
52397;DHT22;38322;53.108;6.308;2023-11-19T20:34:11;10.90;99.90
52397;DHT22;38322;53.108;6.308;2023-11-19T20:36:37;10.80;99.90
52397;DHT22;38322;53.108;6.308;2023-11-19T20:39:03;10.90;99.90
52397;DHT22;38322;53.108;6.308;2023-11-19T20:41:29;10.90;99.90
52397;DHT22;38322;53.108;6.308;2023-11-19T20:43:55;10.90;99.90
52397;DHT22;38322;53.108;6.308;2023-11-19T20:46:21;10.90;99.90
52397;DHT22;38322;53.108;6.308;2023-11-19T20:48:48;11.00;99.90
52397;DHT22;38322;53.108;6.308;2023-11-19T20:51:15;11.00;99.90
52397;DHT22;38322;53.108;6.308;2023-11-19T20:53:41;11.00;99.90
52397;DHT22;38322;53.108;6.308;2023-11-19T20:56:07;11.00;99.90
52397;DHT22;38322;53.108;6.308;2023-11-19T20:58:34;11.00;99.90
